createdAt,value
2018-07-20T00:01:26.290Z,97360.66
2018-07-20T00:03:55.730Z,97382.98
2018-07-20T00:06:24.906Z,97381.97
2018-07-20T00:08:53.405Z,97396.17
2018-07-20T00:11:22.247Z,97382.98
2018-07-20T00:13:51.119Z,97353.56
2018-07-20T00:16:19.670Z,97407.33
2018-07-20T00:18:48.244Z,97408.34
2018-07-20T00:21:17.309Z,97417.48
2018-07-20T00:23:45.805Z,97434.72
2018-07-20T00:26:14.423Z,97463.13
2018-07-20T00:28:43.042Z,97460.09
2018-07-20T00:31:11.634Z,97455.02
2018-07-20T00:33:40.233Z,97474.30
2018-07-20T00:36:08.802Z,97491.54
2018-07-20T00:38:37.566Z,97520.96
2018-07-20T00:41:06.273Z,97525.02
2018-07-20T00:43:34.793Z,97522.98
2018-07-20T00:46:03.708Z,97557.48
2018-07-20T00:48:32.239Z,97547.34
2018-07-20T00:51:00.727Z,97596.04
2018-07-20T00:53:29.320Z,97570.67
2018-07-20T00:55:57.835Z,97569.66
2018-07-20T00:58:26.411Z,97578.80
2018-07-20T01:00:54.990Z,97608.22
2018-07-20T01:03:23.489Z,97629.52
2018-07-20T01:05:51.983Z,97610.24
2018-07-20T01:08:20.467Z,97655.90
2018-07-20T01:10:48.949Z,97642.71
2018-07-20T01:13:17.491Z,97646.77
2018-07-20T01:15:46.113Z,97633.58
2018-07-20T01:18:15.386Z,97679.23
2018-07-20T01:20:44.256Z,97692.42
2018-07-20T01:23:12.786Z,97670.11
2018-07-20T01:25:41.342Z,97681.27
2018-07-20T01:28:09.873Z,97681.27
2018-07-20T01:30:39.013Z,97683.30
2018-07-20T01:33:07.862Z,97679.23
2018-07-20T01:35:36.417Z,97685.33
2018-07-20T01:38:04.971Z,97706.63
2018-07-20T01:40:33.482Z,97715.77
2018-07-20T01:43:02.118Z,97733.02
2018-07-20T01:45:30.583Z,97766.49
2018-07-20T01:47:59.123Z,97723.88
2018-07-20T01:50:28.395Z,97769.54
2018-07-20T01:52:56.866Z,97752.29
2018-07-20T01:55:25.390Z,97702.58
2018-07-20T01:57:53.950Z,97737.07
2018-07-20T02:00:22.523Z,97773.59
2018-07-20T02:02:51.062Z,97751.27
2018-07-20T02:05:19.615Z,97771.57
2018-07-20T02:07:48.089Z,97787.80
2018-07-20T02:10:16.661Z,97807.08
2018-07-20T02:12:45.158Z,97757.36
2018-07-20T02:15:13.693Z,97786.79
2018-07-20T02:17:42.389Z,97827.38
2018-07-20T02:20:10.934Z,97829.41
2018-07-20T02:22:39.441Z,97824.33
2018-07-20T02:25:07.998Z,97818.24
2018-07-20T02:27:36.601Z,97830.42
2018-07-20T02:30:05.975Z,97824.33
2018-07-20T02:32:34.556Z,97852.73
2018-07-20T02:35:03.109Z,97864.91
2018-07-20T02:37:31.792Z,97856.80
2018-07-20T02:40:00.317Z,97862.89
2018-07-20T02:42:28.851Z,97826.36
2018-07-20T02:44:57.389Z,97865.93
2018-07-20T02:47:25.899Z,97874.05
2018-07-20T02:49:54.373Z,97885.21
2018-07-20T02:52:22.898Z,97863.91
2018-07-20T02:54:51.414Z,97903.47
2018-07-20T02:57:19.970Z,97896.38
2018-07-20T02:59:48.450Z,97910.58
2018-07-20T03:02:16.935Z,97876.08
2018-07-20T03:04:45.406Z,97877.09
2018-07-20T03:07:13.897Z,97946.09
2018-07-20T03:09:42.429Z,97898.41
2018-07-20T03:12:10.948Z,97910.58
2018-07-20T03:14:39.522Z,97915.65
2018-07-20T03:17:08.073Z,97924.78
2018-07-20T03:19:36.586Z,97921.73
2018-07-20T03:22:05.298Z,97950.15
2018-07-20T03:24:34.250Z,97937.97
2018-07-20T03:27:02.792Z,97928.84
2018-07-20T03:29:31.289Z,97923.77
2018-07-20T03:32:00.449Z,97921.73
2018-07-20T03:34:29.036Z,97916.66
2018-07-20T03:36:57.569Z,97925.80
2018-07-20T03:39:26.098Z,97943.05
2018-07-20T03:41:54.669Z,97940.00
2018-07-20T03:44:23.441Z,97945.08
2018-07-20T03:46:51.969Z,97957.25
2018-07-20T03:49:20.574Z,97931.88
2018-07-20T03:51:49.090Z,97936.95
2018-07-20T03:54:17.583Z,97945.08
2018-07-20T03:56:46.134Z,97957.25
2018-07-20T03:59:14.707Z,97915.65
2018-07-20T04:01:43.223Z,97913.63
2018-07-20T04:04:12.207Z,97936.95
2018-07-20T04:06:40.750Z,97932.90
2018-07-20T04:09:10.485Z,97935.94
2018-07-20T04:11:39.525Z,97959.28
2018-07-20T04:14:08.391Z,97911.59
2018-07-20T04:16:37.917Z,97938.98
2018-07-20T04:19:07.251Z,97882.17
2018-07-20T04:21:36.042Z,97881.15
2018-07-20T04:24:04.632Z,97925.80
2018-07-20T04:26:33.179Z,97871.00
2018-07-20T04:29:01.828Z,97900.43
2018-07-20T04:31:30.370Z,97880.13
2018-07-20T04:33:58.850Z,97887.23
2018-07-20T04:36:27.555Z,97851.72
2018-07-20T04:38:56.061Z,97849.70
2018-07-20T04:41:24.825Z,97822.30
2018-07-20T04:43:53.402Z,97822.30
2018-07-20T04:46:21.868Z,97803.02
2018-07-20T04:48:50.333Z,97831.44
2018-07-20T04:51:19.155Z,97782.73
2018-07-20T04:53:47.624Z,97808.09
2018-07-20T04:56:16.129Z,97827.38
2018-07-20T04:58:45.598Z,97824.33
2018-07-20T05:01:14.206Z,97792.88
2018-07-20T05:03:42.728Z,97805.05
2018-07-20T05:06:11.263Z,97726.92
2018-07-20T05:08:39.777Z,97706.63
2018-07-20T05:11:08.551Z,97596.04
2018-07-20T05:13:37.157Z,97477.34
2018-07-20T05:16:05.727Z,97437.77
2018-07-20T05:18:34.403Z,97387.04
2018-07-20T05:21:02.904Z,97346.45
2018-07-20T05:23:31.426Z,97362.69
2018-07-20T05:25:59.998Z,97294.72
2018-07-20T05:28:28.558Z,97326.17
2018-07-20T05:30:57.331Z,97358.63
2018-07-20T05:33:25.853Z,97289.64
2018-07-20T05:35:56.016Z,97246.02
2018-07-20T05:38:24.491Z,97201.39
2018-07-20T05:40:53.008Z,97250.08
2018-07-20T05:43:21.563Z,97186.17
2018-07-20T05:45:50.055Z,97197.33
2018-07-20T05:48:18.558Z,97095.88
2018-07-20T05:50:47.042Z,97179.07
2018-07-20T05:53:15.607Z,97253.12
2018-07-20T05:55:44.160Z,97171.97
2018-07-20T05:58:12.722Z,97168.92
2018-07-20T06:00:41.262Z,97127.33
2018-07-20T06:03:09.766Z,97048.20
2018-07-20T06:05:38.343Z,97075.59
2018-07-20T06:08:06.976Z,97095.88
2018-07-20T06:10:35.592Z,97167.91
2018-07-20T06:13:04.131Z,97106.03
2018-07-20T06:15:32.613Z,97122.27
2018-07-20T06:18:01.153Z,97142.55
2018-07-20T06:20:29.674Z,97130.38
2018-07-20T06:22:58.234Z,97097.91
2018-07-20T06:25:26.726Z,96911.27
2018-07-20T06:27:55.255Z,96888.94
2018-07-20T06:30:23.850Z,96965.02
2018-07-20T06:32:52.386Z,97102.98
2018-07-20T06:35:20.897Z,96814.89
2018-07-20T06:37:49.873Z,96877.78
2018-07-20T06:40:18.458Z,96957.92
2018-07-20T06:42:47.198Z,96660.72
2018-07-20T06:45:15.718Z,96832.14
2018-07-20T06:47:44.323Z,96872.72
2018-07-20T06:50:15.901Z,96777.36
2018-07-20T06:52:45.661Z,96777.36
2018-07-20T06:55:14.395Z,96845.33
2018-07-20T06:57:43.001Z,96602.90
2018-07-20T07:00:11.717Z,96590.73
2018-07-20T07:02:40.262Z,96518.72
2018-07-20T07:05:10.182Z,96674.91
2018-07-20T07:07:38.704Z,96672.89
2018-07-20T07:10:07.917Z,96628.26
2018-07-20T07:12:36.745Z,96766.20
2018-07-20T07:15:05.674Z,96706.36
2018-07-20T07:17:34.146Z,96791.56
2018-07-20T07:20:02.713Z,96847.35
2018-07-20T07:22:31.211Z,96855.47
2018-07-20T07:24:59.760Z,96909.23
2018-07-20T07:27:28.276Z,96929.52
2018-07-20T07:29:56.895Z,96905.17
2018-07-20T07:32:25.419Z,96935.60
2018-07-20T07:34:53.899Z,96935.60
2018-07-20T07:37:22.414Z,96844.31
2018-07-20T07:39:50.971Z,96844.31
2018-07-20T07:42:19.501Z,96834.16
2018-07-20T07:44:48.054Z,96823.01
2018-07-20T07:47:16.939Z,96777.36
2018-07-20T07:49:45.432Z,96712.44
2018-07-20T07:52:13.942Z,96719.55
2018-07-20T07:54:42.451Z,96774.32
2018-07-20T07:57:11.012Z,96767.22
2018-07-20T07:59:39.559Z,96728.67
2018-07-20T08:02:08.521Z,96632.31
2018-07-20T08:04:37.007Z,96655.64
2018-07-20T08:07:05.510Z,96677.95
2018-07-20T08:09:34.082Z,96670.86
2018-07-20T08:12:02.705Z,96580.58
2018-07-20T08:14:31.332Z,96605.94
2018-07-20T08:16:59.834Z,96571.45
2018-07-20T08:19:28.410Z,96574.50
2018-07-20T08:21:57.007Z,96515.67
2018-07-20T08:24:25.510Z,96471.04
2018-07-20T08:26:54.396Z,96368.60
2018-07-20T08:29:23.172Z,96369.62
2018-07-20T08:31:51.773Z,96417.29
2018-07-20T08:34:20.441Z,96431.48
2018-07-20T08:36:48.949Z,96266.17
2018-07-20T08:39:17.508Z,96361.50
2018-07-20T08:41:46.049Z,96541.03
2018-07-20T08:44:14.653Z,96315.86
2018-07-20T08:46:43.347Z,96340.20
2018-07-20T08:49:11.965Z,96164.75
2018-07-20T08:51:40.541Z,96262.11
2018-07-20T08:54:09.043Z,96277.33
2018-07-20T08:56:37.529Z,96316.88
2018-07-20T08:59:06.444Z,96353.39
2018-07-20T09:01:34.994Z,96249.94
2018-07-20T09:04:03.598Z,96196.19
2018-07-20T09:06:32.107Z,96456.84
2018-07-20T09:09:00.693Z,96376.72
2018-07-20T09:11:29.206Z,96156.64
2018-07-20T09:13:57.859Z,96158.66
2018-07-20T09:16:26.302Z,96060.29
2018-07-20T09:18:54.820Z,95904.12
2018-07-20T09:21:23.387Z,95961.92
2018-07-20T09:23:52.045Z,95905.12
2018-07-20T09:26:20.642Z,96059.28
2018-07-20T09:28:49.163Z,96077.53
2018-07-20T09:31:17.693Z,95952.80
2018-07-20T09:33:46.474Z,96077.53
2018-07-20T09:36:15.171Z,96051.16
2018-07-20T09:38:43.730Z,95905.12
2018-07-20T09:41:12.313Z,95902.09
2018-07-20T09:43:40.853Z,95946.70
2018-07-20T09:46:09.370Z,95820.96
2018-07-20T09:48:37.950Z,95914.26
2018-07-20T09:51:06.757Z,95893.97
2018-07-20T09:53:35.265Z,95891.95
2018-07-20T09:56:04.308Z,95954.83
2018-07-20T09:58:32.887Z,95862.54
2018-07-20T10:01:01.460Z,95874.70
2018-07-20T10:03:30.024Z,95700.29
2018-07-20T10:05:58.569Z,95733.75
2018-07-20T10:08:27.621Z,95812.85
2018-07-20T10:10:56.173Z,95625.25
2018-07-20T10:13:24.670Z,95733.75
2018-07-20T10:15:53.223Z,95630.33
2018-07-20T10:18:21.726Z,95669.87
2018-07-20T10:20:50.369Z,95677.98
2018-07-20T10:23:18.856Z,95629.31
2018-07-20T10:25:47.515Z,95539.06
2018-07-20T10:28:16.090Z,95681.02
2018-07-20T10:30:44.612Z,95492.42
2018-07-20T10:33:13.489Z,95393.05
2018-07-20T10:35:42.018Z,95457.94
2018-07-20T10:38:10.564Z,95450.84
2018-07-20T10:40:39.138Z,95487.34
2018-07-20T10:43:17.655Z,95610.04
2018-07-20T10:45:49.732Z,95500.53
2018-07-20T10:48:18.290Z,95484.30
2018-07-20T10:50:46.867Z,95455.91
2018-07-20T10:53:15.475Z,95520.81
2018-07-20T10:55:44.020Z,95384.94
2018-07-20T10:58:12.574Z,95395.08
2018-07-20T11:00:41.232Z,95425.50
2018-07-20T11:03:09.878Z,95336.27
2018-07-20T11:05:38.421Z,95312.95
2018-07-20T11:08:06.987Z,95315.98
2018-07-20T11:10:35.653Z,95292.67
2018-07-20T11:13:04.654Z,95242.98
2018-07-20T11:15:33.154Z,95295.72
2018-07-20T11:18:01.685Z,95422.45
2018-07-20T11:20:30.277Z,95358.58
2018-07-20T11:22:58.797Z,95218.66
2018-07-20T11:25:27.458Z,95197.36
2018-07-20T11:27:56.030Z,95200.41
2018-07-20T11:30:24.509Z,95274.42
2018-07-20T11:32:53.061Z,95312.95
2018-07-20T11:35:21.614Z,95217.64
2018-07-20T11:37:50.211Z,95161.87
2018-07-20T11:40:18.751Z,95127.41
2018-07-20T11:42:47.313Z,95008.79
2018-07-20T11:45:15.900Z,95113.21
2018-07-20T11:47:44.404Z,94959.11
2018-07-20T11:50:12.932Z,95002.70
2018-07-20T11:52:41.412Z,95013.86
2018-07-20T11:55:10.140Z,94869.89
2018-07-20T11:57:38.739Z,94946.94
2018-07-20T12:00:07.253Z,94886.11
2018-07-20T12:02:35.738Z,95068.61
2018-07-20T12:05:04.343Z,95167.96
2018-07-20T12:07:32.925Z,95028.05
2018-07-20T12:10:01.505Z,94905.38
2018-07-20T12:12:30.026Z,94779.67
2018-07-20T12:14:58.512Z,94693.50
2018-07-20T12:17:27.012Z,94842.52
2018-07-20T12:19:55.512Z,94931.73
2018-07-20T12:22:24.078Z,95092.94
2018-07-20T12:24:52.558Z,94916.53
2018-07-20T12:27:21.258Z,94987.50
2018-07-20T12:29:49.963Z,94909.43
2018-07-20T12:32:18.480Z,95249.08
2018-07-20T12:34:47.324Z,95166.95
2018-07-20T12:37:15.929Z,94963.16
2018-07-20T12:39:45.436Z,94659.03
2018-07-20T12:42:13.921Z,94676.27
2018-07-20T12:44:42.385Z,94700.59
2018-07-20T12:47:10.955Z,94518.13
2018-07-20T12:49:40.036Z,94545.50
2018-07-20T12:52:08.574Z,94613.41
2018-07-20T12:54:37.110Z,94936.80
2018-07-20T12:57:05.678Z,94952.02
2018-07-20T12:59:34.204Z,94942.89
2018-07-20T13:02:02.719Z,94742.16
2018-07-20T13:04:31.232Z,94537.39
2018-07-20T13:06:59.896Z,94728.98
2018-07-20T13:09:28.365Z,94498.86
2018-07-20T13:11:57.431Z,94420.81
2018-07-20T13:14:26.057Z,94504.95
2018-07-20T13:16:54.572Z,94423.86
2018-07-20T13:19:23.105Z,94438.05
2018-07-20T13:21:51.736Z,94497.85
2018-07-20T13:24:20.453Z,94375.20
2018-07-20T13:26:49.309Z,94445.14
2018-07-20T13:29:17.858Z,94438.05
2018-07-20T13:31:46.404Z,94648.89
2018-07-20T13:34:14.975Z,94573.87
2018-07-20T13:36:43.472Z,94864.83
2018-07-20T13:39:12.816Z,94829.34
2018-07-20T13:41:41.925Z,94760.41
2018-07-20T13:44:11.437Z,94594.16
2018-07-20T13:46:40.006Z,94660.05
2018-07-20T13:49:08.498Z,94629.63
2018-07-20T13:51:36.957Z,94662.08
2018-07-20T13:54:05.680Z,94587.06
2018-07-20T13:56:34.165Z,94793.86
2018-07-20T13:59:02.702Z,94743.17
2018-07-20T14:01:31.198Z,94356.95
2018-07-20T14:03:59.977Z,94589.09
2018-07-20T14:06:28.473Z,94398.52
2018-07-20T14:08:57.096Z,94628.63
2018-07-20T14:11:25.640Z,94461.36
2018-07-20T14:13:54.196Z,94408.65
2018-07-20T14:16:23.077Z,94348.84
2018-07-20T14:18:51.559Z,94495.83
2018-07-20T14:21:20.022Z,94384.32
2018-07-20T14:23:48.561Z,94334.66
2018-07-20T14:26:17.145Z,94311.34
2018-07-20T14:28:45.648Z,94252.55
2018-07-20T14:31:14.290Z,94069.09
2018-07-20T14:33:42.793Z,93800.51
2018-07-20T14:36:11.304Z,93667.74
2018-07-20T14:38:39.763Z,93910.98
2018-07-20T14:41:08.278Z,93691.05
2018-07-20T14:43:36.809Z,94214.03
2018-07-20T14:46:05.589Z,94333.64
2018-07-20T14:48:34.113Z,94084.30
2018-07-20T14:51:02.749Z,94110.65
2018-07-20T14:53:31.223Z,94112.67
2018-07-20T14:55:59.730Z,93927.20
2018-07-20T14:58:28.417Z,94096.45
2018-07-20T15:00:56.918Z,94056.92
2018-07-20T15:03:25.757Z,94604.29
2018-07-20T15:05:54.249Z,94484.67
2018-07-20T15:08:22.693Z,94462.38
2018-07-20T15:10:51.304Z,94474.54
2018-07-20T15:13:19.769Z,94266.73
2018-07-20T15:15:48.281Z,94233.29
2018-07-20T15:18:16.769Z,94090.38
2018-07-20T15:20:45.245Z,94018.41
2018-07-20T15:23:13.711Z,94128.89
2018-07-20T15:25:42.632Z,94012.33
2018-07-20T15:28:11.152Z,93997.13
2018-07-20T15:30:39.634Z,93852.20
2018-07-20T15:33:08.157Z,93806.59
2018-07-20T15:35:36.658Z,93655.58
2018-07-20T15:38:05.258Z,93774.16
2018-07-20T15:40:33.757Z,94126.86
2018-07-20T15:43:02.293Z,93799.50
2018-07-20T15:45:30.794Z,93477.22
2018-07-20T15:47:59.257Z,94038.69
2018-07-20T15:50:27.824Z,94250.52
2018-07-20T15:53:35.723Z,94133.95
2018-07-20T15:55:24.866Z,94065.03
2018-07-20T15:57:53.454Z,94540.42
2018-07-20T16:00:21.961Z,94281.95
2018-07-20T16:02:50.507Z,94238.36
2018-07-20T16:05:19.005Z,94049.83
2018-07-20T16:07:47.498Z,93917.06
2018-07-20T16:10:16.233Z,94020.44
2018-07-20T16:12:44.733Z,93988.01
2018-07-20T16:15:13.240Z,93961.66
2018-07-20T16:17:41.738Z,93943.41
2018-07-20T16:20:11.044Z,94072.13
2018-07-20T16:22:39.529Z,94033.61
2018-07-20T16:25:08.128Z,93924.16
2018-07-20T16:27:36.681Z,94058.95
2018-07-20T16:30:05.602Z,94212.00
2018-07-20T16:32:34.245Z,94073.14
2018-07-20T16:35:02.778Z,93878.55
2018-07-20T16:37:31.361Z,94197.81
2018-07-20T16:39:59.891Z,94405.61
2018-07-20T16:42:28.353Z,94469.47
2018-07-20T16:44:56.869Z,94499.88
2018-07-20T16:47:29.421Z,94390.41
2018-07-20T16:49:59.158Z,94334.66
2018-07-20T16:52:28.823Z,94338.70
2018-07-20T16:54:57.312Z,94276.87
2018-07-20T16:57:25.847Z,94276.87
2018-07-20T16:59:54.319Z,94199.84
2018-07-20T17:02:22.785Z,94528.27
2018-07-20T17:04:51.338Z,94495.83
2018-07-20T17:07:20.105Z,94419.80
2018-07-20T17:09:48.599Z,94478.59
2018-07-20T17:12:17.208Z,94279.92
2018-07-20T17:14:45.685Z,94294.11
2018-07-20T17:17:14.222Z,94589.09
2018-07-20T17:19:42.961Z,94342.77
2018-07-20T17:22:11.563Z,94301.20
2018-07-20T17:24:40.563Z,94301.20
2018-07-20T17:27:09.261Z,94499.88
2018-07-20T17:29:37.765Z,94606.31
2018-07-20T17:32:06.473Z,94387.36
2018-07-20T17:34:35.123Z,94287.02
2018-07-20T17:37:03.646Z,94374.19
2018-07-20T17:39:32.178Z,94515.08
2018-07-20T17:42:00.644Z,94591.11
2018-07-20T17:44:29.128Z,94545.50
2018-07-20T17:46:57.802Z,94521.17
2018-07-20T17:49:26.656Z,94716.81
2018-07-20T17:51:55.250Z,94638.75
2018-07-20T17:54:23.819Z,94654.98
2018-07-20T17:56:52.320Z,94687.42
2018-07-20T17:59:20.790Z,94768.52
2018-07-20T18:01:49.334Z,94773.59
2018-07-20T18:04:17.824Z,94805.02
2018-07-20T18:06:46.354Z,94912.47
2018-07-20T18:09:14.945Z,94947.95
2018-07-20T18:11:43.441Z,94991.55
2018-07-20T18:14:11.933Z,94951.00
2018-07-20T18:16:40.506Z,94992.56
2018-07-20T18:19:08.972Z,95017.91
2018-07-20T18:21:44.053Z,94959.11
2018-07-20T18:24:12.565Z,94980.40
2018-07-20T18:26:41.102Z,95021.97
2018-07-20T18:29:09.626Z,95083.81
2018-07-20T18:31:38.227Z,95166.95
2018-07-20T18:34:06.950Z,95187.23
2018-07-20T18:36:35.472Z,95237.92
2018-07-20T18:39:05.004Z,95295.72
2018-07-20T18:41:33.544Z,95323.09
2018-07-20T18:44:02.093Z,95361.63
2018-07-20T18:46:30.611Z,95414.34
2018-07-20T18:48:59.129Z,95482.28
2018-07-20T18:51:27.671Z,95563.40
2018-07-20T18:53:56.165Z,95569.48
2018-07-20T18:56:24.622Z,95615.11
2018-07-20T18:58:53.183Z,95626.27
2018-07-20T19:01:21.755Z,95660.74
2018-07-20T19:03:50.320Z,95619.17
2018-07-20T19:06:18.932Z,95528.92
2018-07-20T19:08:47.521Z,95646.55
2018-07-20T19:11:16.051Z,95651.62
2018-07-20T19:13:44.961Z,95646.55
2018-07-20T19:16:13.437Z,95709.41
2018-07-20T19:18:41.931Z,95734.77
2018-07-20T19:21:10.513Z,95791.55
2018-07-20T19:23:39.222Z,95839.22
2018-07-20T19:26:07.749Z,95914.26
2018-07-20T19:28:36.637Z,95908.17
2018-07-20T19:31:05.157Z,95956.85
2018-07-20T19:33:33.681Z,96012.63
2018-07-20T19:36:02.222Z,96087.67
2018-07-20T19:38:30.817Z,96118.09
2018-07-20T19:40:59.602Z,96187.06
2018-07-20T19:43:28.079Z,96242.84
2018-07-20T19:45:56.804Z,96293.55
2018-07-20T19:48:25.323Z,96357.45
2018-07-20T19:50:53.817Z,96381.79
2018-07-20T19:53:22.345Z,96426.41
2018-07-20T19:55:51.224Z,96428.44
2018-07-20T19:58:19.729Z,96478.14
2018-07-20T20:00:48.192Z,96420.33
2018-07-20T20:03:16.751Z,96430.47
2018-07-20T20:05:45.323Z,96298.63
2018-07-20T20:08:13.904Z,96269.21
2018-07-20T20:10:42.388Z,96240.81
2018-07-20T20:13:10.896Z,96208.36
2018-07-20T20:15:39.946Z,96197.20
2018-07-20T20:18:08.593Z,96191.12
2018-07-20T20:20:37.072Z,96204.30
2018-07-20T20:23:05.710Z,96272.25
2018-07-20T20:25:34.266Z,96270.22
2018-07-20T20:28:02.866Z,96257.04
2018-07-20T20:30:31.391Z,96259.06
2018-07-20T20:32:59.868Z,96313.84
2018-07-20T20:35:28.382Z,96311.80
2018-07-20T20:37:56.879Z,96297.61
2018-07-20T20:40:25.400Z,96337.16
2018-07-20T20:42:54.025Z,96324.99
2018-07-20T20:45:22.649Z,96330.06
2018-07-20T20:47:51.157Z,96378.75
2018-07-20T20:50:19.757Z,96349.33
2018-07-20T20:52:48.348Z,96347.30
2018-07-20T20:55:16.862Z,96398.02
2018-07-20T20:57:45.338Z,96440.61
2018-07-20T21:00:13.913Z,96424.39
2018-07-20T21:02:42.408Z,96452.78
2018-07-20T21:05:10.900Z,96475.10
2018-07-20T21:07:39.389Z,96469.02
2018-07-20T21:10:08.321Z,96484.23
2018-07-20T21:12:36.884Z,96517.70
2018-07-20T21:15:05.936Z,96571.45
2018-07-20T21:17:34.448Z,96491.33
2018-07-20T21:20:02.943Z,96631.30
2018-07-20T21:22:31.498Z,96569.42
2018-07-20T21:25:00.074Z,96579.57
2018-07-20T21:27:28.621Z,96611.02
2018-07-20T21:29:57.196Z,96643.47
2018-07-20T21:32:25.851Z,96697.23
2018-07-20T21:34:54.386Z,96662.74
2018-07-20T21:37:22.870Z,96716.50
2018-07-20T21:39:51.399Z,96713.46
2018-07-20T21:42:19.997Z,96709.41
2018-07-20T21:44:49.396Z,96716.50
2018-07-20T21:47:17.968Z,96683.03
2018-07-20T21:49:46.467Z,96741.86
2018-07-20T21:52:15.036Z,96723.60
2018-07-20T21:54:43.533Z,96718.53
2018-07-20T21:57:12.020Z,96777.36
2018-07-20T21:59:40.628Z,96771.28
2018-07-20T22:02:09.149Z,96768.23
2018-07-20T22:04:37.753Z,96726.64
2018-07-20T22:07:06.680Z,96746.94
2018-07-20T22:09:35.178Z,96784.47
2018-07-20T22:12:03.683Z,96784.47
2018-07-20T22:14:32.570Z,96760.12
2018-07-20T22:17:01.040Z,96783.45
2018-07-20T22:19:29.687Z,96805.77
2018-07-20T22:21:58.181Z,96813.88
2018-07-20T22:24:26.640Z,96809.82
2018-07-20T22:26:55.152Z,96821.99
2018-07-20T22:29:23.624Z,96842.28
2018-07-20T22:31:52.121Z,96858.52
2018-07-20T22:34:20.590Z,96907.20
2018-07-20T22:36:49.064Z,96872.72
2018-07-20T22:39:17.556Z,96906.19
2018-07-20T22:41:46.128Z,96887.93
2018-07-20T22:44:15.129Z,96941.69
2018-07-20T22:46:43.608Z,96914.30
2018-07-20T22:49:12.107Z,96936.62
2018-07-20T22:51:42.101Z,96952.85
2018-07-20T22:54:10.697Z,97011.69
2018-07-20T22:56:39.244Z,96997.48
2018-07-20T22:59:07.730Z,96976.18
2018-07-20T23:01:36.288Z,97007.63
2018-07-20T23:04:04.841Z,97023.86
2018-07-20T23:06:33.357Z,97040.09
2018-07-20T23:09:01.844Z,97041.11
2018-07-20T23:11:30.344Z,97057.34
2018-07-20T23:13:58.890Z,97073.56
2018-07-20T23:16:27.356Z,97105.02
2018-07-20T23:18:55.852Z,97106.03
2018-07-20T23:21:24.378Z,97057.34
2018-07-20T23:23:52.844Z,97054.30
2018-07-20T23:26:21.361Z,97112.11
2018-07-20T23:28:49.841Z,97107.04
2018-07-20T23:31:18.877Z,97081.69
2018-07-20T23:33:47.340Z,97120.23
2018-07-20T23:36:15.824Z,97131.39
2018-07-20T23:38:44.426Z,97092.84
2018-07-20T23:41:12.940Z,97142.55
2018-07-20T23:43:41.482Z,97100.95
2018-07-20T23:46:10.000Z,97147.62
2018-07-20T23:48:38.651Z,97154.72
2018-07-20T23:51:07.758Z,97164.87
2018-07-20T23:53:36.280Z,97112.11
2018-07-20T23:56:05.005Z,97161.82
2018-07-20T23:58:33.546Z,97155.73
